createdAt,value
2023-05-12T00:00:23.879Z,43.59
2023-05-12T00:00:55.312Z,43.82
2023-05-12T00:01:26.742Z,43.76
2023-05-12T00:01:58.140Z,43.76
2023-05-12T00:02:29.609Z,43.70
2023-05-12T00:03:01.122Z,43.77
2023-05-12T00:03:32.699Z,43.69
2023-05-12T00:04:04.577Z,43.71
2023-05-12T00:04:36.291Z,43.46
2023-05-12T00:05:07.763Z,43.33
2023-05-12T00:05:39.195Z,43.46
2023-05-12T00:06:10.620Z,43.76
2023-05-12T00:06:42.025Z,43.47
2023-05-12T00:07:13.424Z,43.70
2023-05-12T00:07:44.808Z,43.56
2023-05-12T00:08:16.197Z,43.32
2023-05-12T00:08:47.596Z,43.57
2023-05-12T00:09:19.018Z,43.85
2023-05-12T00:09:50.413Z,43.39
2023-05-12T00:10:21.963Z,43.39
2023-05-12T00:10:53.520Z,43.45
2023-05-12T00:11:24.936Z,43.79
2023-05-12T00:11:56.351Z,43.20
2023-05-12T00:12:27.757Z,43.62
2023-05-12T00:12:59.189Z,43.83
2023-05-12T00:13:30.657Z,43.71
2023-05-12T00:14:02.106Z,43.64
2023-05-12T00:14:33.530Z,43.65
2023-05-12T00:15:04.923Z,43.46
2023-05-12T00:15:36.321Z,43.48
2023-05-12T00:16:07.735Z,43.75
2023-05-12T00:16:39.179Z,43.54
2023-05-12T00:17:10.610Z,43.31
2023-05-12T00:17:42.061Z,43.72
2023-05-12T00:18:13.491Z,43.48
2023-05-12T00:18:45.005Z,43.58
2023-05-12T00:19:16.434Z,43.46
2023-05-12T00:19:47.831Z,43.51
2023-05-12T00:20:19.400Z,43.60
2023-05-12T00:20:51.006Z,43.84
2023-05-12T00:21:22.399Z,43.58
2023-05-12T00:21:53.842Z,43.64
2023-05-12T00:22:25.245Z,43.76
2023-05-12T00:22:56.642Z,43.60
2023-05-12T00:23:28.054Z,43.81
2023-05-12T00:23:59.475Z,43.68
2023-05-12T00:24:30.879Z,43.50
2023-05-12T00:25:02.275Z,43.35
2023-05-12T00:25:33.662Z,43.45
2023-05-12T00:26:05.082Z,43.87
2023-05-12T00:26:36.520Z,43.71
2023-05-12T00:27:07.991Z,43.68
2023-05-12T00:27:39.408Z,43.40
2023-05-12T00:28:10.826Z,43.74
2023-05-12T00:28:42.250Z,43.32
2023-05-12T00:29:13.686Z,43.44
2023-05-12T00:29:45.102Z,43.39
2023-05-12T00:30:16.561Z,43.25
2023-05-12T00:30:48.015Z,43.62
2023-05-12T00:31:19.450Z,43.33
2023-05-12T00:31:50.921Z,43.33
2023-05-12T00:32:22.486Z,43.65
2023-05-12T00:32:53.941Z,43.52
2023-05-12T00:33:25.365Z,43.86
2023-05-12T00:33:56.763Z,43.44
2023-05-12T00:34:28.174Z,43.88
2023-05-12T00:34:59.571Z,43.26
2023-05-12T00:35:31.006Z,43.73
2023-05-12T00:36:02.426Z,43.78
2023-05-12T00:36:33.838Z,43.55
2023-05-12T00:37:05.254Z,43.83
2023-05-12T00:37:36.723Z,43.68
2023-05-12T00:38:08.184Z,43.61
2023-05-12T00:38:39.592Z,43.89
2023-05-12T00:39:10.985Z,43.40
2023-05-12T00:39:42.394Z,43.51
2023-05-12T00:40:13.870Z,43.92
2023-05-12T00:40:45.278Z,43.26
2023-05-12T00:41:16.692Z,43.60
2023-05-12T00:41:48.086Z,43.49
2023-05-12T00:42:19.477Z,43.46
2023-05-12T00:42:50.973Z,43.46
2023-05-12T00:43:22.383Z,43.64
2023-05-12T00:43:53.794Z,43.34
2023-05-12T00:44:25.199Z,44.11
2023-05-12T00:44:56.616Z,43.77
2023-05-12T00:45:28.011Z,43.76
2023-05-12T00:45:59.504Z,43.35
2023-05-12T00:46:31.004Z,43.50
2023-05-12T00:47:02.431Z,43.60
2023-05-12T00:47:33.857Z,43.42
2023-05-12T00:48:05.405Z,43.65
2023-05-12T00:48:36.861Z,43.50
2023-05-12T00:49:08.316Z,43.70
2023-05-12T00:49:39.732Z,43.60
2023-05-12T00:50:11.151Z,43.90
2023-05-12T00:50:42.563Z,43.67
2023-05-12T00:51:13.968Z,43.51
2023-05-12T00:51:45.363Z,43.93
2023-05-12T00:52:16.774Z,43.42
2023-05-12T00:52:48.213Z,43.46
2023-05-12T00:53:19.677Z,43.59
2023-05-12T00:53:51.097Z,43.30
2023-05-12T00:54:22.490Z,43.45
2023-05-12T00:54:53.897Z,43.55
2023-05-12T00:55:25.307Z,43.93
2023-05-12T00:55:56.721Z,43.55
2023-05-12T00:56:28.119Z,43.63
2023-05-12T00:56:59.536Z,43.42
2023-05-12T00:57:30.939Z,44.00
2023-05-12T00:58:02.378Z,43.58
2023-05-12T00:58:33.826Z,43.48
2023-05-12T00:59:05.219Z,43.36
2023-05-12T00:59:36.643Z,43.55
2023-05-12T01:00:08.064Z,43.85
2023-05-12T01:00:39.458Z,43.61
2023-05-12T01:01:10.906Z,43.59
2023-05-12T01:01:42.318Z,43.62
2023-05-12T01:02:13.791Z,43.53
2023-05-12T01:02:45.349Z,43.61
2023-05-12T01:03:16.915Z,43.42
2023-05-12T01:03:48.506Z,44.12
2023-05-12T01:04:19.940Z,43.37
2023-05-12T01:04:51.358Z,44.02
2023-05-12T01:05:22.766Z,43.59
2023-05-12T01:05:54.156Z,43.48
2023-05-12T01:06:25.583Z,43.60
2023-05-12T01:06:56.977Z,43.84
2023-05-12T01:07:28.372Z,43.58
2023-05-12T01:07:59.779Z,43.57
2023-05-12T01:08:31.193Z,43.84
2023-05-12T01:09:02.650Z,43.59
2023-05-12T01:09:34.101Z,43.28
2023-05-12T01:10:05.469Z,43.30
2023-05-12T01:10:36.873Z,43.44
2023-05-12T01:11:08.306Z,43.41
2023-05-12T01:11:39.704Z,43.65
2023-05-12T01:12:11.120Z,43.45
2023-05-12T01:12:42.540Z,43.62
2023-05-12T01:13:13.954Z,43.63
2023-05-12T01:13:45.350Z,43.73
2023-05-12T01:14:16.804Z,43.63
2023-05-12T01:14:48.230Z,43.93
2023-05-12T01:15:19.638Z,43.65
2023-05-12T01:15:51.036Z,44.01
2023-05-12T01:16:22.462Z,43.62
2023-05-12T01:16:53.897Z,44.06
2023-05-12T01:17:25.394Z,43.86
2023-05-12T01:17:56.836Z,43.62
2023-05-12T01:18:28.350Z,43.65
2023-05-12T01:18:59.927Z,43.67
2023-05-12T01:19:31.392Z,43.69
2023-05-12T01:20:02.838Z,43.65
2023-05-12T01:20:34.268Z,43.63
2023-05-12T01:21:05.668Z,43.77
2023-05-12T01:21:37.071Z,43.31
2023-05-12T01:22:08.490Z,43.24
2023-05-12T01:22:40.012Z,43.21
2023-05-12T01:23:11.557Z,43.49
2023-05-12T01:23:42.956Z,43.34
2023-05-12T01:24:14.356Z,43.40
2023-05-12T01:24:45.820Z,43.85
2023-05-12T01:25:17.233Z,43.78
2023-05-12T01:25:48.643Z,43.78
2023-05-12T01:26:20.044Z,43.58
2023-05-12T01:26:51.434Z,43.40
2023-05-12T01:27:22.836Z,43.61
2023-05-12T01:27:54.242Z,43.70
2023-05-12T01:28:25.657Z,43.66
2023-05-12T01:28:57.067Z,43.50
2023-05-12T01:29:28.481Z,43.73
2023-05-12T01:29:59.914Z,43.75
2023-05-12T01:30:31.313Z,43.48
2023-05-12T01:31:02.721Z,43.42
2023-05-12T01:31:34.194Z,43.71
2023-05-12T01:32:05.636Z,43.74
2023-05-12T01:32:37.110Z,43.76
2023-05-12T01:33:08.544Z,43.66
2023-05-12T01:33:39.930Z,43.53
2023-05-12T01:34:11.342Z,43.73
2023-05-12T01:34:42.744Z,43.76
2023-05-12T01:35:14.190Z,43.75
2023-05-12T01:35:45.607Z,44.21
2023-05-12T01:36:17.004Z,43.57
2023-05-12T01:36:48.391Z,43.79
2023-05-12T01:37:19.791Z,43.77
2023-05-12T01:37:51.200Z,44.02
2023-05-12T01:38:22.628Z,43.53
2023-05-12T01:38:54.059Z,43.65
2023-05-12T01:39:25.495Z,43.75
2023-05-12T01:39:56.918Z,43.90
2023-05-12T01:40:28.345Z,43.43
2023-05-12T01:40:59.762Z,43.63
2023-05-12T01:41:31.161Z,43.74
2023-05-12T01:42:02.587Z,43.74
2023-05-12T01:42:34.015Z,43.60
2023-05-12T01:43:05.419Z,43.60
2023-05-12T01:43:36.809Z,43.54
2023-05-12T01:44:08.255Z,44.20
2023-05-12T01:44:39.665Z,44.01
2023-05-12T01:45:11.071Z,43.74
2023-05-12T01:45:42.498Z,43.99
2023-05-12T01:46:13.936Z,43.71
2023-05-12T01:46:45.409Z,44.07
2023-05-12T01:47:16.853Z,43.68
2023-05-12T01:47:48.301Z,43.96
2023-05-12T01:48:19.770Z,43.53
2023-05-12T01:48:51.186Z,44.08
2023-05-12T01:49:22.579Z,44.11
2023-05-12T01:49:53.989Z,43.67
2023-05-12T01:50:25.420Z,43.72
2023-05-12T01:50:56.814Z,43.44
2023-05-12T01:51:28.202Z,43.71
2023-05-12T01:51:59.659Z,43.45
2023-05-12T01:52:31.065Z,43.54
2023-05-12T01:53:02.464Z,43.88
2023-05-12T01:53:33.871Z,43.61
2023-05-12T01:54:05.277Z,43.86
2023-05-12T01:54:36.686Z,43.75
2023-05-12T01:55:08.086Z,43.77
2023-05-12T01:55:39.523Z,43.86
2023-05-12T01:56:10.950Z,43.79
2023-05-12T01:56:42.380Z,43.85
2023-05-12T01:57:13.836Z,44.04
2023-05-12T01:57:45.247Z,44.01
2023-05-12T01:58:16.738Z,43.84
2023-05-12T01:58:48.184Z,44.18
2023-05-12T01:59:19.694Z,43.64
2023-05-12T01:59:51.141Z,44.15
2023-05-12T02:00:22.740Z,43.67
2023-05-12T02:00:54.273Z,43.48
2023-05-12T02:01:25.708Z,43.79
2023-05-12T02:01:57.180Z,44.02
2023-05-12T02:02:28.669Z,43.88
2023-05-12T02:03:00.289Z,43.96
2023-05-12T02:03:31.993Z,43.88
2023-05-12T02:04:03.608Z,43.93
2023-05-12T02:04:35.227Z,43.66
2023-05-12T02:05:06.647Z,43.96
2023-05-12T02:05:38.070Z,43.75
2023-05-12T02:06:09.483Z,43.37
2023-05-12T02:06:40.898Z,43.52
2023-05-12T02:07:12.310Z,43.74
2023-05-12T02:07:43.715Z,43.90
2023-05-12T02:08:15.133Z,44.24
2023-05-12T02:08:46.531Z,43.50
2023-05-12T02:09:17.944Z,43.78
2023-05-12T02:09:49.347Z,43.70
2023-05-12T02:10:21.033Z,44.10
2023-05-12T02:10:52.604Z,43.70
2023-05-12T02:11:24.004Z,43.62
2023-05-12T02:11:55.418Z,43.55
2023-05-12T02:12:26.837Z,44.02
2023-05-12T02:12:58.268Z,43.82
2023-05-12T02:13:29.733Z,43.92
2023-05-12T02:14:01.144Z,43.90
2023-05-12T02:14:32.567Z,43.91
2023-05-12T02:15:03.963Z,43.53
2023-05-12T02:15:35.421Z,43.58
2023-05-12T02:16:06.840Z,44.15
2023-05-12T02:16:38.386Z,43.87
2023-05-12T02:17:09.915Z,44.09
2023-05-12T02:17:41.369Z,43.94
2023-05-12T02:18:12.817Z,44.16
2023-05-12T02:18:44.327Z,43.82
2023-05-12T02:19:15.795Z,43.77
2023-05-12T02:19:47.193Z,43.56
2023-05-12T02:20:18.892Z,43.45
2023-05-12T02:20:50.431Z,44.03
2023-05-12T02:21:21.853Z,43.77
2023-05-12T02:21:53.276Z,43.53
2023-05-12T02:22:24.735Z,43.79
2023-05-12T02:22:56.146Z,43.68
2023-05-12T02:23:27.545Z,43.42
2023-05-12T02:23:58.946Z,44.19
2023-05-12T02:24:30.398Z,43.54
2023-05-12T02:25:01.854Z,43.72
2023-05-12T02:25:33.269Z,43.73
2023-05-12T02:26:04.681Z,43.64
2023-05-12T02:26:36.086Z,43.66
2023-05-12T02:27:07.493Z,43.94
2023-05-12T02:27:38.945Z,44.00
2023-05-12T02:28:10.342Z,43.65
2023-05-12T02:28:41.755Z,43.75
2023-05-12T02:29:13.157Z,43.88
2023-05-12T02:29:44.572Z,43.84
2023-05-12T02:30:15.998Z,43.61
2023-05-12T02:30:47.410Z,44.06
2023-05-12T02:31:18.853Z,43.61
2023-05-12T02:31:50.366Z,44.10
2023-05-12T02:32:21.884Z,43.65
2023-05-12T02:32:53.391Z,44.18
2023-05-12T02:33:24.826Z,43.50
2023-05-12T02:33:56.227Z,43.74
2023-05-12T02:34:27.639Z,43.80
2023-05-12T02:34:59.031Z,44.43
2023-05-12T02:35:30.444Z,43.60
2023-05-12T02:36:01.907Z,43.90
2023-05-12T02:36:33.324Z,44.22
2023-05-12T02:37:04.745Z,43.96
2023-05-12T02:37:36.147Z,44.06
2023-05-12T02:38:07.571Z,44.36
2023-05-12T02:38:38.992Z,43.90
2023-05-12T02:39:10.720Z,43.69
2023-05-12T02:39:42.245Z,43.61
2023-05-12T02:40:13.682Z,44.22
2023-05-12T02:40:45.089Z,43.69
2023-05-12T02:41:16.504Z,44.05
2023-05-12T02:41:47.946Z,44.08
2023-05-12T02:42:19.424Z,44.30
2023-05-12T02:42:50.829Z,43.94
2023-05-12T02:43:22.284Z,44.37
2023-05-12T02:43:53.706Z,43.90
2023-05-12T02:44:25.098Z,43.95
2023-05-12T02:44:56.508Z,43.83
2023-05-12T02:45:27.908Z,43.85
2023-05-12T02:45:59.337Z,43.95
2023-05-12T02:46:30.832Z,44.07
2023-05-12T02:47:02.248Z,43.76
2023-05-12T02:47:33.720Z,43.63
2023-05-12T02:48:05.185Z,43.87
2023-05-12T02:48:36.626Z,43.53
2023-05-12T02:49:08.022Z,43.90
2023-05-12T02:49:39.439Z,44.03
2023-05-12T02:50:10.901Z,44.08
2023-05-12T02:50:42.296Z,43.78
2023-05-12T02:51:13.731Z,43.96
2023-05-12T02:51:45.189Z,44.02
2023-05-12T02:52:16.610Z,43.70
2023-05-12T02:52:48.055Z,44.16
2023-05-12T02:53:19.446Z,43.69
2023-05-12T02:53:50.872Z,43.75
2023-05-12T02:54:22.261Z,43.98
2023-05-12T02:54:53.661Z,43.75
2023-05-12T02:55:25.081Z,43.65
2023-05-12T02:55:56.504Z,44.04
2023-05-12T02:56:27.913Z,44.30
2023-05-12T02:56:59.310Z,43.79
2023-05-12T02:57:30.708Z,44.02
2023-05-12T02:58:02.129Z,43.92
2023-05-12T02:58:33.538Z,44.01
2023-05-12T02:59:04.993Z,43.97
2023-05-12T02:59:36.398Z,44.21
2023-05-12T03:00:07.829Z,43.80
2023-05-12T03:00:39.248Z,43.79
2023-05-12T03:01:11.603Z,44.03
2023-05-12T03:01:43.457Z,43.62
2023-05-12T03:02:14.975Z,44.03
2023-05-12T03:02:46.525Z,43.70
2023-05-12T03:03:18.094Z,44.06
2023-05-12T03:03:49.656Z,43.75
2023-05-12T03:04:21.130Z,43.63
2023-05-12T03:04:52.520Z,43.89
2023-05-12T03:05:23.959Z,44.18
2023-05-12T03:05:55.373Z,43.65
2023-05-12T03:06:26.774Z,43.65
2023-05-12T03:06:58.234Z,43.92
2023-05-12T03:07:29.646Z,43.86
2023-05-12T03:08:01.050Z,43.60
2023-05-12T03:08:32.498Z,44.22
2023-05-12T03:09:03.884Z,44.25
2023-05-12T03:09:35.298Z,44.32
2023-05-12T03:10:06.713Z,44.27
2023-05-12T03:10:38.117Z,43.65
2023-05-12T03:11:09.512Z,43.66
2023-05-12T03:11:40.937Z,44.18
2023-05-12T03:12:12.351Z,44.04
2023-05-12T03:12:43.769Z,44.09
2023-05-12T03:13:15.181Z,43.75
2023-05-12T03:13:46.577Z,43.90
2023-05-12T03:14:17.984Z,44.13
2023-05-12T03:14:49.380Z,43.87
2023-05-12T03:15:20.817Z,44.07
2023-05-12T03:15:52.199Z,43.96
2023-05-12T03:16:23.650Z,43.74
2023-05-12T03:16:55.091Z,44.16
2023-05-12T03:17:26.511Z,43.72
2023-05-12T03:17:58.036Z,43.79
2023-05-12T03:18:29.608Z,44.19
2023-05-12T03:19:01.148Z,44.01
2023-05-12T03:19:32.572Z,44.25
2023-05-12T03:20:03.984Z,44.18
2023-05-12T03:20:35.428Z,43.95
2023-05-12T03:21:06.845Z,43.79
2023-05-12T03:21:38.250Z,44.08
2023-05-12T03:22:09.670Z,43.97
2023-05-12T03:22:41.094Z,43.61
2023-05-12T03:23:12.503Z,44.00
2023-05-12T03:23:43.911Z,43.96
2023-05-12T03:24:15.363Z,44.17
2023-05-12T03:24:46.785Z,43.61
2023-05-12T03:25:18.210Z,44.21
2023-05-12T03:25:49.678Z,44.04
2023-05-12T03:26:21.086Z,43.64
2023-05-12T03:26:52.492Z,43.70
2023-05-12T03:27:23.902Z,43.65
2023-05-12T03:27:55.313Z,43.82
2023-05-12T03:28:26.727Z,43.94
2023-05-12T03:28:58.148Z,43.95
2023-05-12T03:29:29.562Z,43.77
2023-05-12T03:30:00.976Z,44.02
2023-05-12T03:30:32.410Z,43.81
2023-05-12T03:31:03.894Z,43.99
2023-05-12T03:31:35.342Z,44.06
2023-05-12T03:32:06.780Z,43.91
2023-05-12T03:32:38.184Z,44.03
2023-05-12T03:33:09.587Z,44.36
2023-05-12T03:33:40.982Z,44.15
2023-05-12T03:34:12.392Z,44.19
2023-05-12T03:34:43.804Z,44.06
2023-05-12T03:35:15.217Z,43.81
2023-05-12T03:35:46.614Z,44.12
2023-05-12T03:36:18.065Z,44.04
2023-05-12T03:36:49.500Z,44.23
2023-05-12T03:37:20.920Z,44.04
2023-05-12T03:37:52.335Z,43.91
2023-05-12T03:38:23.751Z,44.01
2023-05-12T03:38:55.163Z,43.98
2023-05-12T03:39:26.567Z,44.16
2023-05-12T03:39:58.009Z,44.01
2023-05-12T03:40:29.437Z,43.93
2023-05-12T03:41:00.841Z,43.82
2023-05-12T03:41:32.285Z,44.41
2023-05-12T03:42:03.707Z,43.68
2023-05-12T03:42:35.135Z,44.05
2023-05-12T03:43:06.551Z,44.31
2023-05-12T03:43:37.951Z,43.87
2023-05-12T03:44:09.370Z,44.32
2023-05-12T03:44:40.792Z,43.94
2023-05-12T03:45:12.199Z,43.69
2023-05-12T03:45:43.615Z,44.14
2023-05-12T03:46:15.107Z,43.95
2023-05-12T03:46:46.664Z,44.22
2023-05-12T03:47:18.165Z,43.79
2023-05-12T03:47:49.722Z,43.87
2023-05-12T03:48:21.225Z,43.90
2023-05-12T03:48:52.672Z,43.95
2023-05-12T03:49:24.080Z,43.97
2023-05-12T03:49:55.498Z,44.37
2023-05-12T03:50:26.913Z,43.77
2023-05-12T03:50:58.344Z,43.91
2023-05-12T03:51:29.753Z,44.11
2023-05-12T03:52:01.168Z,43.96
2023-05-12T03:52:32.575Z,43.80
2023-05-12T03:53:03.989Z,44.15
2023-05-12T03:53:35.404Z,44.17
2023-05-12T03:54:06.817Z,44.09
2023-05-12T03:54:38.240Z,44.08
2023-05-12T03:55:09.637Z,43.91
2023-05-12T03:55:41.035Z,44.12
2023-05-12T03:56:12.452Z,44.41
2023-05-12T03:56:43.855Z,44.00
2023-05-12T03:57:15.299Z,44.09
2023-05-12T03:57:46.711Z,44.23
2023-05-12T03:58:18.119Z,43.99
2023-05-12T03:58:49.530Z,44.34
2023-05-12T03:59:20.927Z,43.96
2023-05-12T03:59:52.345Z,44.08
2023-05-12T04:00:23.784Z,44.14
2023-05-12T04:00:55.205Z,44.36
2023-05-12T04:01:26.628Z,44.38
2023-05-12T04:01:58.112Z,44.05
2023-05-12T04:02:29.827Z,44.41
2023-05-12T04:03:01.508Z,44.20
2023-05-12T04:03:33.034Z,44.46
2023-05-12T04:04:04.585Z,44.10
2023-05-12T04:04:35.995Z,44.48
2023-05-12T04:05:07.432Z,44.20
2023-05-12T04:05:38.885Z,43.95
2023-05-12T04:06:10.298Z,44.03
2023-05-12T04:06:41.698Z,43.98
2023-05-12T04:07:13.107Z,44.41
2023-05-12T04:07:44.618Z,44.24
2023-05-12T04:08:16.042Z,44.66
2023-05-12T04:08:47.448Z,44.54
2023-05-12T04:09:18.845Z,44.59
2023-05-12T04:09:50.284Z,44.43
2023-05-12T04:10:21.841Z,44.67
2023-05-12T04:10:53.412Z,44.36
2023-05-12T04:11:24.851Z,44.29
2023-05-12T04:11:56.278Z,44.03
2023-05-12T04:12:27.694Z,44.15
2023-05-12T04:12:59.602Z,44.16
2023-05-12T04:13:31.260Z,44.09
2023-05-12T04:14:02.671Z,44.42
2023-05-12T04:14:42.293Z,44.46
2023-05-12T04:15:14.844Z,44.36
2023-05-12T04:15:46.284Z,44.27
2023-05-12T04:16:17.759Z,44.49
2023-05-12T04:16:49.314Z,44.32
2023-05-12T04:17:20.846Z,44.32
2023-05-12T04:17:52.368Z,44.29
2023-05-12T04:18:23.891Z,44.23
2023-05-12T04:18:55.369Z,44.52
2023-05-12T04:19:26.834Z,44.62
2023-05-12T04:19:58.221Z,44.40
2023-05-12T04:20:29.610Z,44.22
2023-05-12T04:21:01.015Z,44.34
2023-05-12T04:21:32.414Z,44.43
2023-05-12T04:22:03.820Z,44.21
2023-05-12T04:22:35.233Z,44.43
2023-05-12T04:23:06.650Z,44.64
2023-05-12T04:23:38.103Z,44.38
2023-05-12T04:24:09.503Z,44.43
2023-05-12T04:24:40.899Z,44.09
2023-05-12T04:25:12.324Z,44.09
2023-05-12T04:25:43.738Z,44.05
2023-05-12T04:26:15.165Z,44.01
2023-05-12T04:26:46.582Z,44.32
2023-05-12T04:27:17.996Z,44.23
2023-05-12T04:27:49.416Z,44.16
2023-05-12T04:28:20.818Z,44.58
2023-05-12T04:28:52.272Z,44.41
2023-05-12T04:29:23.664Z,44.13
2023-05-12T04:29:55.156Z,44.26
2023-05-12T04:30:26.594Z,44.33
2023-05-12T04:30:58.000Z,44.59
2023-05-12T04:31:29.438Z,44.59
2023-05-12T04:32:00.907Z,44.45
2023-05-12T04:32:32.478Z,44.00
2023-05-12T04:33:03.961Z,44.49
2023-05-12T04:33:35.512Z,44.34
2023-05-12T04:34:07.015Z,44.78
2023-05-12T04:34:38.430Z,44.43
2023-05-12T04:35:09.852Z,44.14
2023-05-12T04:35:41.287Z,44.13
2023-05-12T04:36:12.701Z,44.48
2023-05-12T04:36:44.137Z,44.66
2023-05-12T04:37:15.561Z,44.53
2023-05-12T04:37:46.985Z,44.54
2023-05-12T04:38:18.395Z,44.79
2023-05-12T04:38:49.817Z,44.67
2023-05-12T04:39:21.250Z,44.69
2023-05-12T04:39:52.683Z,44.34
2023-05-12T04:40:24.086Z,44.69
2023-05-12T04:40:55.472Z,44.49
2023-05-12T04:41:26.888Z,44.64
2023-05-12T04:41:58.301Z,44.18
2023-05-12T04:42:29.723Z,44.48
2023-05-12T04:43:01.134Z,44.25
2023-05-12T04:44:06.842Z,44.76
2023-05-12T04:44:38.242Z,44.47
2023-05-12T04:45:09.652Z,44.91
2023-05-12T04:45:41.102Z,44.32
2023-05-12T04:46:12.575Z,44.80
2023-05-12T04:46:44.096Z,44.19
2023-05-12T04:47:15.588Z,44.67
2023-05-12T04:47:47.127Z,44.21
2023-05-12T04:48:18.582Z,44.61
2023-05-12T04:48:49.994Z,44.92
2023-05-12T04:49:21.464Z,44.18
2023-05-12T04:49:52.880Z,44.58
2023-05-12T04:50:24.280Z,44.13
2023-05-12T04:50:55.682Z,44.44
2023-05-12T04:51:27.100Z,44.42
2023-05-12T04:51:58.498Z,44.31
2023-05-12T04:52:29.912Z,44.35
2023-05-12T04:53:01.312Z,44.53
2023-05-12T04:53:32.746Z,44.10
2023-05-12T04:54:04.623Z,44.52
2023-05-12T04:54:36.123Z,44.49
2023-05-12T04:55:07.543Z,44.36
2023-05-12T04:55:39.163Z,44.63
2023-05-12T04:56:10.591Z,44.34
2023-05-12T04:56:42.006Z,44.59
2023-05-12T04:57:13.423Z,44.33
2023-05-12T04:57:44.833Z,44.09
2023-05-12T04:58:16.269Z,44.71
2023-05-12T04:58:47.683Z,44.05
2023-05-12T04:59:19.088Z,44.46
2023-05-12T04:59:50.487Z,44.62
2023-05-12T05:00:21.912Z,44.13
2023-05-12T05:00:53.309Z,44.02
2023-05-12T05:01:24.762Z,44.24
2023-05-12T05:01:56.269Z,44.37
2023-05-12T05:02:27.867Z,44.41
2023-05-12T05:02:59.370Z,44.35
2023-05-12T05:03:30.979Z,44.25
2023-05-12T05:04:02.529Z,44.32
2023-05-12T05:04:33.990Z,44.15
2023-05-12T05:05:05.468Z,44.33
2023-05-12T05:05:36.886Z,44.29
2023-05-12T05:06:08.292Z,44.73
2023-05-12T05:06:39.700Z,44.19
2023-05-12T05:07:11.095Z,44.57
2023-05-12T05:07:42.512Z,44.49
2023-05-12T05:08:13.913Z,44.30
2023-05-12T05:08:45.335Z,44.53
2023-05-12T05:09:16.766Z,44.20
2023-05-12T05:09:48.182Z,44.41
2023-05-12T05:10:19.584Z,44.20
2023-05-12T05:10:51.021Z,44.79
2023-05-12T05:11:22.426Z,44.45
2023-05-12T05:11:53.877Z,44.16
2023-05-12T05:12:25.304Z,44.17
2023-05-12T05:12:56.733Z,44.46
2023-05-12T05:13:28.162Z,44.18
2023-05-12T05:13:59.578Z,44.01
2023-05-12T05:14:31.009Z,44.70
2023-05-12T05:15:02.390Z,44.28
2023-05-12T05:15:33.837Z,44.02
2023-05-12T05:16:05.353Z,44.10
2023-05-12T05:16:36.828Z,44.00
2023-05-12T05:17:08.270Z,44.21
2023-05-12T05:17:39.698Z,44.35
2023-05-12T05:18:11.130Z,44.48
2023-05-12T05:18:42.606Z,44.61
2023-05-12T05:19:22.384Z,44.35
2023-05-12T05:20:07.171Z,44.17
2023-05-12T05:20:45.218Z,44.51
2023-05-12T05:21:17.279Z,44.21
2023-05-12T05:21:48.804Z,44.68
2023-05-12T05:22:20.246Z,44.23
2023-05-12T05:22:52.226Z,44.41
2023-05-12T05:23:23.898Z,44.34
2023-05-12T05:23:55.503Z,44.33
2023-05-12T05:24:27.006Z,44.54
2023-05-12T05:24:58.611Z,44.49
2023-05-12T05:25:30.327Z,44.43
2023-05-12T05:26:01.792Z,44.44
2023-05-12T05:26:33.206Z,44.39
2023-05-12T05:27:04.599Z,44.47
2023-05-12T05:27:35.995Z,44.24
2023-05-12T05:28:07.394Z,44.49
2023-05-12T05:28:38.812Z,44.72
2023-05-12T05:29:10.210Z,44.60
2023-05-12T05:29:41.621Z,44.71
2023-05-12T05:30:13.179Z,44.29
2023-05-12T05:30:44.613Z,44.61
2023-05-12T05:31:16.030Z,44.57
2023-05-12T05:31:47.502Z,44.83
2023-05-12T05:32:19.135Z,44.32
2023-05-12T05:32:50.559Z,44.31
2023-05-12T05:33:22.047Z,44.41
2023-05-12T05:33:53.447Z,44.56
2023-05-12T05:34:24.889Z,44.73
2023-05-12T05:34:56.352Z,44.74
2023-05-12T05:35:27.979Z,44.28
2023-05-12T05:35:59.423Z,44.40
2023-05-12T05:36:31.686Z,44.94
2023-05-12T05:37:03.314Z,44.71
2023-05-12T05:37:34.851Z,44.78
2023-05-12T05:38:06.266Z,44.78
2023-05-12T05:38:37.743Z,44.93
2023-05-12T05:39:09.154Z,44.91
2023-05-12T05:39:40.657Z,44.79
2023-05-12T05:40:12.071Z,45.21
2023-05-12T05:40:52.857Z,45.04
2023-05-12T05:41:24.831Z,45.10
2023-05-12T05:41:56.245Z,45.16
2023-05-12T05:42:27.658Z,45.32
2023-05-12T05:42:59.105Z,45.10
2023-05-12T05:43:31.031Z,45.60
2023-05-12T05:44:02.569Z,45.37
2023-05-12T05:44:34.186Z,44.83
2023-05-12T05:45:05.767Z,45.32
2023-05-12T05:45:37.206Z,45.26
2023-05-12T05:46:08.859Z,45.33
2023-05-12T05:46:40.407Z,45.66
2023-05-12T05:47:11.868Z,45.87
2023-05-12T05:47:43.359Z,45.96
2023-05-12T05:48:14.760Z,46.25
2023-05-12T05:48:46.158Z,46.13
2023-05-12T05:49:17.550Z,46.34
2023-05-12T05:49:49.124Z,46.14
2023-05-12T05:50:20.819Z,46.48
2023-05-12T05:50:52.241Z,46.04
2023-05-12T05:51:23.680Z,46.11
2023-05-12T05:51:55.227Z,46.52
2023-05-12T05:52:26.696Z,46.58
2023-05-12T05:52:58.110Z,45.89
2023-05-12T05:53:29.537Z,46.35
2023-05-12T05:54:04.282Z,45.93
2023-05-12T05:54:36.285Z,46.19
2023-05-12T05:55:07.800Z,46.16
2023-05-12T05:55:39.403Z,46.00
2023-05-12T05:56:10.832Z,46.34
2023-05-12T05:56:42.244Z,46.17
2023-05-12T05:57:13.664Z,46.14
2023-05-12T05:57:45.089Z,45.99
2023-05-12T05:58:16.500Z,46.33
2023-05-12T05:58:47.907Z,46.06
2023-05-12T05:59:19.311Z,46.10
2023-05-12T05:59:50.823Z,46.07
2023-05-12T06:00:22.263Z,46.18
2023-05-12T06:00:53.665Z,45.91
2023-05-12T06:01:25.054Z,46.33
2023-05-12T06:01:56.635Z,46.21
2023-05-12T06:02:28.192Z,45.99
2023-05-12T06:02:59.825Z,45.68
2023-05-12T06:03:31.362Z,45.96
2023-05-12T06:04:02.885Z,46.33
2023-05-12T06:04:34.577Z,46.53
2023-05-12T06:05:06.114Z,46.22
2023-05-12T06:05:37.655Z,46.21
2023-05-12T06:06:09.072Z,46.15
2023-05-12T06:06:41.078Z,45.84
2023-05-12T06:07:12.502Z,45.66
2023-05-12T06:07:43.919Z,45.87
2023-05-12T06:08:15.401Z,46.31
2023-05-12T06:08:46.810Z,46.19
2023-05-12T06:09:18.245Z,46.14
2023-05-12T06:09:49.715Z,46.33
2023-05-12T06:10:21.378Z,45.93
2023-05-12T06:10:52.962Z,45.89
2023-05-12T06:11:24.384Z,45.82
2023-05-12T06:11:55.805Z,46.40
2023-05-12T06:12:27.197Z,46.00
2023-05-12T06:12:58.607Z,45.52
2023-05-12T06:13:30.050Z,45.73
2023-05-12T06:14:01.446Z,46.03
2023-05-12T06:14:32.863Z,46.00
2023-05-12T06:15:04.291Z,46.12
2023-05-12T06:15:35.677Z,46.03
2023-05-12T06:16:07.093Z,46.09
2023-05-12T06:16:38.529Z,46.28
2023-05-12T06:17:10.013Z,45.69
2023-05-12T06:17:41.663Z,46.01
2023-05-12T06:18:13.084Z,46.35
2023-05-12T06:18:44.525Z,46.12
2023-05-12T06:19:15.979Z,45.70
2023-05-12T06:19:47.403Z,45.93
2023-05-12T06:20:18.812Z,45.89
2023-05-12T06:20:50.215Z,46.25
2023-05-12T06:21:21.621Z,45.88
2023-05-12T06:21:53.036Z,46.28
2023-05-12T06:22:24.446Z,46.10
2023-05-12T06:22:55.844Z,45.92
2023-05-12T06:23:27.240Z,46.15
2023-05-12T06:23:58.656Z,45.91
2023-05-12T06:24:30.088Z,46.14
2023-05-12T06:25:01.542Z,45.88
2023-05-12T06:25:32.995Z,46.19
2023-05-12T06:26:04.420Z,45.97
2023-05-12T06:26:35.819Z,45.81
2023-05-12T06:27:07.230Z,45.96
2023-05-12T06:27:38.663Z,45.94
2023-05-12T06:28:10.099Z,46.14
2023-05-12T06:28:41.499Z,45.98
2023-05-12T06:29:12.919Z,46.07
2023-05-12T06:29:44.339Z,45.82
2023-05-12T06:30:16.406Z,45.63
2023-05-12T06:30:47.968Z,45.98
2023-05-12T06:31:19.387Z,45.73
2023-05-12T06:31:50.990Z,46.00
2023-05-12T06:32:22.473Z,46.11
2023-05-12T06:32:54.092Z,45.63
2023-05-12T06:33:25.556Z,46.14
2023-05-12T06:33:56.985Z,45.86
2023-05-12T06:34:28.390Z,45.78
2023-05-12T06:34:59.790Z,46.09
2023-05-12T06:35:31.204Z,46.14
2023-05-12T06:36:02.607Z,46.08
2023-05-12T06:36:33.995Z,45.86
2023-05-12T06:37:05.414Z,46.29
2023-05-12T06:37:36.815Z,46.11
2023-05-12T06:38:08.225Z,46.14
2023-05-12T06:38:39.638Z,46.19
2023-05-12T06:39:11.068Z,46.04
2023-05-12T06:39:42.494Z,46.50
2023-05-12T06:40:13.935Z,46.13
2023-05-12T06:40:45.642Z,46.08
2023-05-12T06:41:17.063Z,46.20
2023-05-12T06:41:48.678Z,46.39
2023-05-12T06:42:20.112Z,46.32
2023-05-12T06:42:51.528Z,46.05
2023-05-12T06:43:22.929Z,45.92
2023-05-12T06:43:54.344Z,46.08
2023-05-12T06:44:25.770Z,45.93
2023-05-12T06:44:57.232Z,46.14
2023-05-12T06:45:28.642Z,46.24
2023-05-12T06:46:00.075Z,46.36
2023-05-12T06:46:31.541Z,45.88